Airfield :
LOGIN :

Register | Disclaimer

   EN    FR    IT 

 










Legend :    VFR   Marginal VFR   IFR   Intensive IFR   Very Intensive IFR
Visi :
Ceiling :
>= 8 km
>= 3000ft
5 to 8 km
1000 to 3000 ft
1500m to 5 km
500 to 1000 ft
800 to 1500m
200 to 500 ft
< 800m
< 200 ft
Symbols :   Thunderstorms  Fog  Heavy snow  Heavy precipitations  Wind > 20 kt
SIGMETs :     Misc.  Thunderstorms  Icing  Turbulence  Mountain Waves  Volcanic Ashes







- Airport Elevation : 1411 ft
- IATA code : SZG


LOWS - Salzburg

CURRENT METAR :
  • 222150Z AUTO 32003KT 9999 BKN030 15/14 Q1026

EXPIRED METARs :
  • 222120Z AUTO 33002KT 9999 FEW002 BKN030 15/13 Q1026
  • 222050Z VRB02KT 9999 FEW020 SCT030 16/14 Q1026
  • 222020Z 34003KT 9999 FEW020 SCT030 16/14 Q1027 NOSIG
  • 221950Z VRB01KT 9999 FEW020 BKN030 17/14 Q1027 NOSIG
  • 221920Z 30003KT 260V330 9999 FEW020 BKN030 17/15 Q1027 NOSIG

TAF TAF LOWS
Valid from the 22 at 18:00 until the 23 at 18:00 UTC


221715Z 2218/2318 03005KT 9999 BKN025 TX24/2314Z TN14/2304Z
BECMG 2218/2220 15005KT
PROB30
TEMPO 2300/2306 VRB01KT 1200 BCFG FEW005 BKN014
BECMG 2308/2310 02006KT SCT030 BKN300
TEMPO 2314/2318 SCT050 FEW060CB
No reported NOTAMs for that airfield.



MET'MAP, your aeronautical weather chart ! - Copyright ORBIFLY December 2007 - Disclaimer

ORBIFLY MET'MAP TEAM :

Programming & Development : Alexandra Zaïnal
Concept & Development : Baudouin d'Aumeries
Co-Development & Prog : Marc-Olivier Méhu
Technical & hardware support : Manuel Goepfert

Contact : metmap@orbifly.com




SOURCES & CREDITS :

   NOAA